sensor_id;sensor_type;location;lat;lon;timestamp;pressure;altitude;pressure_sealevel;temperature;humidity
70982;BME280;58640;51.320;9.456;2023-05-20T04:47:58;99938.94;;;12.48;72.13
70982;BME280;58640;51.320;9.456;2023-05-20T04:50:41;99932.91;;;12.46;72.41
70982;BME280;58640;51.320;9.456;2023-05-20T04:53:15;99931.44;;;12.27;73.55
70982;BME280;58640;51.320;9.456;2023-05-20T04:55:41;99929.69;;;12.50;72.49
70982;BME280;58640;51.320;9.456;2023-05-20T04:58:08;99930.41;;;12.36;73.59
70982;BME280;58640;51.320;9.456;2023-05-20T05:00:40;99940.84;;;12.39;73.37
70982;BME280;58640;51.320;9.456;2023-05-20T05:03:05;99939.47;;;12.43;73.16
70982;BME280;58640;51.320;9.456;2023-05-20T05:05:31;99941.97;;;12.53;72.88
70982;BME280;58640;51.320;9.456;2023-05-20T05:07:56;99943.72;;;12.38;73.80
70982;BME280;58640;51.320;9.456;2023-05-20T05:10:22;99941.66;;;12.48;73.66
70982;BME280;58640;51.320;9.456;2023-05-20T05:12:49;99939.16;;;12.38;73.99
70982;BME280;58640;51.320;9.456;2023-05-20T05:15:14;99943.19;;;12.42;73.77
70982;BME280;58640;51.320;9.456;2023-05-20T05:17:40;99940.31;;;12.44;73.93
70982;BME280;58640;51.320;9.456;2023-05-20T05:20:06;99939.25;;;12.53;73.66
70982;BME280;58640;51.320;9.456;2023-05-20T05:22:32;99925.47;;;12.48;73.94
70982;BME280;58640;51.320;9.456;2023-05-20T05:25:01;99935.47;;;12.39;74.87
70982;BME280;58640;51.320;9.456;2023-05-20T05:27:26;99943.06;;;12.36;75.12
70982;BME280;58640;51.320;9.456;2023-05-20T05:29:52;99946.25;;;12.39;75.05
70982;BME280;58640;51.320;9.456;2023-05-20T05:32:17;99934.56;;;12.47;74.66
70982;BME280;58640;51.320;9.456;2023-05-20T05:34:42;99936.91;;;12.50;74.33
70982;BME280;58640;51.320;9.456;2023-05-20T05:37:08;99943.34;;;12.49;74.63
70982;BME280;58640;51.320;9.456;2023-05-20T05:39:33;99936.47;;;12.38;75.59
70982;BME280;58640;51.320;9.456;2023-05-20T05:42:01;99937.13;;;12.40;75.18
70982;BME280;58640;51.320;9.456;2023-05-20T05:44:27;99939.13;;;12.46;75.87
70982;BME280;58640;51.320;9.456;2023-05-20T05:46:52;99931.34;;;12.51;75.02
70982;BME280;58640;51.320;9.456;2023-05-20T05:49:17;99936.22;;;12.56;74.56
70982;BME280;58640;51.320;9.456;2023-05-20T05:51:43;99931.31;;;12.59;74.56
70982;BME280;58640;51.320;9.456;2023-05-20T05:54:08;99931.75;;;12.71;73.82
70982;BME280;58640;51.320;9.456;2023-05-20T05:56:33;99926.34;;;12.71;74.07
70982;BME280;58640;51.320;9.456;2023-05-20T05:58:59;99928.69;;;12.74;73.79
70982;BME280;58640;51.320;9.456;2023-05-20T06:01:24;99935.63;;;12.76;73.92
70982;BME280;58640;51.320;9.456;2023-05-20T06:03:50;99939.50;;;12.74;74.31
70982;BME280;58640;51.320;9.456;2023-05-20T06:06:15;99934.00;;;12.90;73.28
70982;BME280;58640;51.320;9.456;2023-05-20T06:08:40;99929.50;;;12.82;72.88
70982;BME280;58640;51.320;9.456;2023-05-20T06:11:06;99926.63;;;12.84;73.37
70982;BME280;58640;51.320;9.456;2023-05-20T06:13:31;99937.78;;;12.81;73.18
70982;BME280;58640;51.320;9.456;2023-05-20T06:15:56;99928.66;;;12.82;73.31
70982;BME280;58640;51.320;9.456;2023-05-20T06:18:22;99924.28;;;12.81;73.53
70982;BME280;58640;51.320;9.456;2023-05-20T06:20:53;99923.94;;;12.84;73.72
70982;BME280;58640;51.320;9.456;2023-05-20T06:23:19;99919.84;;;12.88;73.54
70982;BME280;58640;51.320;9.456;2023-05-20T06:25:44;99932.19;;;12.82;74.24
70982;BME280;58640;51.320;9.456;2023-05-20T06:28:10;99925.09;;;12.81;74.41
70982;BME280;58640;51.320;9.456;2023-05-20T06:30:36;99925.94;;;12.82;74.76
70982;BME280;58640;51.320;9.456;2023-05-20T06:33:02;99931.63;;;12.95;73.99
70982;BME280;58640;51.320;9.456;2023-05-20T06:35:27;99929.06;;;13.01;73.30
70982;BME280;58640;51.320;9.456;2023-05-20T06:37:52;99919.66;;;12.89;74.13
70982;BME280;58640;51.320;9.456;2023-05-20T06:40:19;99928.72;;;12.96;73.82
70982;BME280;58640;51.320;9.456;2023-05-20T06:42:45;99923.91;;;13.14;72.75
70982;BME280;58640;51.320;9.456;2023-05-20T06:45:10;99926.97;;;13.11;73.04
70982;BME280;58640;51.320;9.456;2023-05-20T06:47:35;99929.97;;;13.16;72.91
70982;BME280;58640;51.320;9.456;2023-05-20T06:50:01;99930.56;;;13.27;72.50
70982;BME280;58640;51.320;9.456;2023-05-20T06:52:27;99917.25;;;13.25;72.60
70982;BME280;58640;51.320;9.456;2023-05-20T06:54:52;99913.31;;;13.27;72.65
70982;BME280;58640;51.320;9.456;2023-05-20T06:57:17;99906.00;;;13.36;72.34
70982;BME280;58640;51.320;9.456;2023-05-20T06:59:44;99923.44;;;13.34;72.38
70982;BME280;58640;51.320;9.456;2023-05-20T07:02:09;99926.75;;;13.36;72.30
70982;BME280;58640;51.320;9.456;2023-05-20T07:04:35;99917.13;;;13.18;72.86
70982;BME280;58640;51.320;9.456;2023-05-20T07:07:00;99917.78;;;13.20;73.52
70982;BME280;58640;51.320;9.456;2023-05-20T07:09:25;99914.78;;;13.15;72.89
70982;BME280;58640;51.320;9.456;2023-05-20T07:11:51;99905.47;;;13.18;72.51
70982;BME280;58640;51.320;9.456;2023-05-20T07:14:16;99910.88;;;13.18;72.83
70982;BME280;58640;51.320;9.456;2023-05-20T07:16:42;99905.88;;;13.07;73.48
70982;BME280;58640;51.320;9.456;2023-05-20T07:19:07;99908.66;;;13.21;73.01
70982;BME280;58640;51.320;9.456;2023-05-20T07:21:32;99911.41;;;13.13;73.02
70982;BME280;58640;51.320;9.456;2023-05-20T07:23:58;99915.75;;;13.23;73.02
70982;BME280;58640;51.320;9.456;2023-05-20T07:26:23;99906.78;;;13.45;72.08
70982;BME280;58640;51.320;9.456;2023-05-20T07:28:48;99899.22;;;13.40;72.53
70982;BME280;58640;51.320;9.456;2023-05-20T07:31:14;99901.03;;;13.62;71.89
70982;BME280;58640;51.320;9.456;2023-05-20T07:33:39;99894.63;;;13.78;71.41
70982;BME280;58640;51.320;9.456;2023-05-20T07:36:05;99892.25;;;13.60;71.23
70982;BME280;58640;51.320;9.456;2023-05-20T07:38:30;99890.25;;;13.91;70.34
70982;BME280;58640;51.320;9.456;2023-05-20T07:40:56;99894.34;;;14.02;69.98
70982;BME280;58640;51.320;9.456;2023-05-20T07:43:22;99887.44;;;13.99;69.70
70982;BME280;58640;51.320;9.456;2023-05-20T07:45:47;99901.91;;;14.06;69.43
70982;BME280;58640;51.320;9.456;2023-05-20T07:48:12;99888.56;;;14.19;68.58
70982;BME280;58640;51.320;9.456;2023-05-20T07:50:38;99891.84;;;14.15;69.05
70982;BME280;58640;51.320;9.456;2023-05-20T07:53:04;99886.06;;;14.32;68.37
70982;BME280;58640;51.320;9.456;2023-05-20T07:55:33;99879.69;;;14.11;68.74
70982;BME280;58640;51.320;9.456;2023-05-20T07:57:58;99885.84;;;14.48;67.92
70982;BME280;58640;51.320;9.456;2023-05-20T08:00:23;99889.59;;;14.33;68.11
70982;BME280;58640;51.320;9.456;2023-05-20T08:02:49;99883.56;;;14.31;68.45
70982;BME280;58640;51.320;9.456;2023-05-20T08:05:14;99882.13;;;14.35;68.08
70982;BME280;58640;51.320;9.456;2023-05-20T08:07:40;99879.22;;;14.22;68.50
70982;BME280;58640;51.320;9.456;2023-05-20T08:10:06;99881.41;;;14.26;68.61
70982;BME280;58640;51.320;9.456;2023-05-20T08:12:31;99883.88;;;14.42;67.83
70982;BME280;58640;51.320;9.456;2023-05-20T08:14:57;99883.25;;;14.40;67.63
70982;BME280;58640;51.320;9.456;2023-05-20T08:17:22;99885.66;;;14.21;69.11
70982;BME280;58640;51.320;9.456;2023-05-20T08:19:47;99885.47;;;14.22;69.47
70982;BME280;58640;51.320;9.456;2023-05-20T08:22:13;99887.34;;;14.22;68.78
70982;BME280;58640;51.320;9.456;2023-05-20T08:24:38;99888.56;;;14.19;69.65
70982;BME280;58640;51.320;9.456;2023-05-20T08:27:03;99873.38;;;14.18;69.01
70982;BME280;58640;51.320;9.456;2023-05-20T08:29:29;99879.59;;;14.19;68.92
70982;BME280;58640;51.320;9.456;2023-05-20T08:31:55;99874.47;;;14.09;69.51
70982;BME280;58640;51.320;9.456;2023-05-20T08:34:21;99878.94;;;14.46;68.07
70982;BME280;58640;51.320;9.456;2023-05-20T08:36:46;99884.63;;;14.51;68.03
70982;BME280;58640;51.320;9.456;2023-05-20T08:39:12;99868.28;;;14.59;67.65
70982;BME280;58640;51.320;9.456;2023-05-20T08:41:38;99874.13;;;14.98;66.54
70982;BME280;58640;51.320;9.456;2023-05-20T08:44:04;99881.09;;;15.28;65.61
70982;BME280;58640;51.320;9.456;2023-05-20T08:46:31;99869.97;;;15.23;64.77
70982;BME280;58640;51.320;9.456;2023-05-20T08:48:58;99874.00;;;15.06;65.54
70982;BME280;58640;51.320;9.456;2023-05-20T08:51:26;99879.03;;;15.09;65.29
70982;BME280;58640;51.320;9.456;2023-05-20T08:53:51;99872.69;;;15.02;65.75
70982;BME280;58640;51.320;9.456;2023-05-20T08:56:17;99873.53;;;14.82;67.01
70982;BME280;58640;51.320;9.456;2023-05-20T08:58:43;99875.06;;;14.91;66.35
70982;BME280;58640;51.320;9.456;2023-05-20T09:01:11;99879.28;;;14.93;66.78
70982;BME280;58640;51.320;9.456;2023-05-20T09:03:36;99879.41;;;15.06;66.25
70982;BME280;58640;51.320;9.456;2023-05-20T09:06:03;99877.38;;;15.36;64.93
70982;BME280;58640;51.320;9.456;2023-05-20T09:08:29;99877.34;;;15.08;65.48
70982;BME280;58640;51.320;9.456;2023-05-20T09:10:55;99882.44;;;14.76;66.82
70982;BME280;58640;51.320;9.456;2023-05-20T09:13:22;99873.56;;;14.67;67.32
70982;BME280;58640;51.320;9.456;2023-05-20T09:15:48;99869.09;;;14.74;67.63
70982;BME280;58640;51.320;9.456;2023-05-20T09:18:13;99876.13;;;14.90;66.65
70982;BME280;58640;51.320;9.456;2023-05-20T09:20:39;99871.84;;;15.02;66.65
70982;BME280;58640;51.320;9.456;2023-05-20T09:23:06;99871.22;;;15.00;66.45
70982;BME280;58640;51.320;9.456;2023-05-20T09:25:32;99868.13;;;14.82;66.70
70982;BME280;58640;51.320;9.456;2023-05-20T09:27:58;99872.44;;;14.97;65.58
70982;BME280;58640;51.320;9.456;2023-05-20T09:30:24;99867.91;;;14.83;66.66
70982;BME280;58640;51.320;9.456;2023-05-20T09:35:19;99875.41;;;15.02;65.41
70982;BME280;58640;51.320;9.456;2023-05-20T09:37:46;99875.88;;;15.06;65.06
70982;BME280;58640;51.320;9.456;2023-05-20T09:40:12;99869.44;;;15.34;64.32
70982;BME280;58640;51.320;9.456;2023-05-20T09:42:52;99873.47;;;15.38;64.02
70982;BME280;58640;51.320;9.456;2023-05-20T09:45:18;99865.13;;;15.40;63.13
70982;BME280;58640;51.320;9.456;2023-05-20T09:47:44;99872.44;;;15.39;63.59
70982;BME280;58640;51.320;9.456;2023-05-20T09:50:09;99874.81;;;15.28;63.79
70982;BME280;58640;51.320;9.456;2023-05-20T09:52:38;99873.81;;;15.35;64.20
70982;BME280;58640;51.320;9.456;2023-05-20T09:55:07;99883.28;;;15.67;63.20
70982;BME280;58640;51.320;9.456;2023-05-20T09:57:35;99874.97;;;15.41;63.48
70982;BME280;58640;51.320;9.456;2023-05-20T10:00:02;99888.03;;;15.16;64.69
70982;BME280;58640;51.320;9.456;2023-05-20T10:02:29;99875.41;;;15.02;65.25
70982;BME280;58640;51.320;9.456;2023-05-20T10:04:56;99876.56;;;15.14;65.67
70982;BME280;58640;51.320;9.456;2023-05-20T10:16:04;99868.88;;;15.18;64.72
70982;BME280;58640;51.320;9.456;2023-05-20T10:19:04;99867.03;;;15.39;64.29
70982;BME280;58640;51.320;9.456;2023-05-20T10:21:33;99868.22;;;15.37;63.43
70982;BME280;58640;51.320;9.456;2023-05-20T10:24:06;99863.13;;;15.27;64.24
70982;BME280;58640;51.320;9.456;2023-05-20T10:26:41;99860.56;;;15.19;64.82
70982;BME280;58640;51.320;9.456;2023-05-20T10:29:16;99871.28;;;15.06;65.39
70982;BME280;58640;51.320;9.456;2023-05-20T10:31:48;99853.47;;;15.18;64.98
70982;BME280;58640;51.320;9.456;2023-05-20T10:34:18;99845.72;;;15.36;64.69
70982;BME280;58640;51.320;9.456;2023-05-20T10:36:45;99844.00;;;15.56;64.60
70982;BME280;58640;51.320;9.456;2023-05-20T10:39:15;99836.63;;;15.44;64.50
70982;BME280;58640;51.320;9.456;2023-05-20T10:41:43;99850.09;;;15.37;63.89
70982;BME280;58640;51.320;9.456;2023-05-20T10:44:08;99849.78;;;15.47;64.13
70982;BME280;58640;51.320;9.456;2023-05-20T10:46:34;99830.06;;;15.59;63.98
70982;BME280;58640;51.320;9.456;2023-05-20T10:49:03;99834.00;;;15.91;63.13
70982;BME280;58640;51.320;9.456;2023-05-20T10:51:29;99834.50;;;16.07;62.01
70982;BME280;58640;51.320;9.456;2023-05-20T10:53:56;99841.38;;;15.97;62.58
70982;BME280;58640;51.320;9.456;2023-05-20T10:56:23;99829.09;;;16.07;62.18
70982;BME280;58640;51.320;9.456;2023-05-20T10:58:51;99816.81;;;16.18;61.14
70982;BME280;58640;51.320;9.456;2023-05-20T11:01:17;99820.69;;;15.96;62.08
70982;BME280;58640;51.320;9.456;2023-05-20T11:03:47;99819.50;;;16.11;62.14
70982;BME280;58640;51.320;9.456;2023-05-20T11:06:15;99822.91;;;16.27;61.92
70982;BME280;58640;51.320;9.456;2023-05-20T11:08:41;99817.41;;;16.54;60.98
70982;BME280;58640;51.320;9.456;2023-05-20T11:11:07;99819.38;;;16.86;59.46
70982;BME280;58640;51.320;9.456;2023-05-20T11:13:32;99821.06;;;17.13;58.35
70982;BME280;58640;51.320;9.456;2023-05-20T11:15:59;99821.44;;;16.84;58.51
70982;BME280;58640;51.320;9.456;2023-05-20T11:18:27;99818.94;;;16.83;59.41
70982;BME280;58640;51.320;9.456;2023-05-20T11:21:00;99815.53;;;16.68;59.03
70982;BME280;58640;51.320;9.456;2023-05-20T11:23:27;99812.47;;;16.97;58.23
70982;BME280;58640;51.320;9.456;2023-05-20T11:25:54;99817.06;;;16.77;59.21
70982;BME280;58640;51.320;9.456;2023-05-20T11:28:19;99803.41;;;16.57;59.30
70982;BME280;58640;51.320;9.456;2023-05-20T11:30:46;99802.88;;;16.94;58.81
70982;BME280;58640;51.320;9.456;2023-05-20T11:33:13;99808.31;;;16.94;58.11
70982;BME280;58640;51.320;9.456;2023-05-20T11:35:46;99803.69;;;17.08;58.41
70982;BME280;58640;51.320;9.456;2023-05-20T11:38:12;99783.84;;;17.46;57.35
70982;BME280;58640;51.320;9.456;2023-05-20T11:40:42;99795.53;;;17.34;57.93
70982;BME280;58640;51.320;9.456;2023-05-20T11:43:10;99765.44;;;17.22;58.24
70982;BME280;58640;51.320;9.456;2023-05-20T11:45:44;99774.84;;;17.13;58.57
70982;BME280;58640;51.320;9.456;2023-05-20T11:48:10;99781.94;;;17.27;57.51
70982;BME280;58640;51.320;9.456;2023-05-20T11:50:42;99783.41;;;17.17;57.89
70982;BME280;58640;51.320;9.456;2023-05-20T11:53:10;99775.88;;;17.32;58.32
70982;BME280;58640;51.320;9.456;2023-05-20T11:58:10;99782.78;;;17.54;57.07
70982;BME280;58640;51.320;9.456;2023-05-20T12:00:35;99795.94;;;17.57;56.99
70982;BME280;58640;51.320;9.456;2023-05-20T12:03:00;99787.59;;;17.19;58.20
70982;BME280;58640;51.320;9.456;2023-05-20T12:05:26;99793.44;;;17.36;57.44
70982;BME280;58640;51.320;9.456;2023-05-20T12:07:51;99779.66;;;17.11;58.44
70982;BME280;58640;51.320;9.456;2023-05-20T12:10:16;99779.63;;;17.57;57.47
70982;BME280;58640;51.320;9.456;2023-05-20T12:12:43;99792.84;;;17.47;57.63
70982;BME280;58640;51.320;9.456;2023-05-20T12:15:09;99784.44;;;17.62;57.27
70982;BME280;58640;51.320;9.456;2023-05-20T12:17:48;99764.78;;;17.27;57.66
70982;BME280;58640;51.320;9.456;2023-05-20T12:20:17;99760.19;;;17.53;56.97
70982;BME280;58640;51.320;9.456;2023-05-20T12:22:44;99760.78;;;17.62;57.18
70982;BME280;58640;51.320;9.456;2023-05-20T12:25:13;99757.97;;;18.01;56.66
70982;BME280;58640;51.320;9.456;2023-05-20T12:27:40;99757.63;;;18.22;56.16
70982;BME280;58640;51.320;9.456;2023-05-20T12:30:06;99748.75;;;18.46;54.96
70982;BME280;58640;51.320;9.456;2023-05-20T12:32:33;99752.22;;;18.60;54.27
70982;BME280;58640;51.320;9.456;2023-05-20T12:34:59;99753.63;;;18.31;54.74
70982;BME280;58640;51.320;9.456;2023-05-20T12:37:24;99759.00;;;18.00;55.64
70982;BME280;58640;51.320;9.456;2023-05-20T12:39:50;99756.22;;;17.30;57.66
70982;BME280;58640;51.320;9.456;2023-05-20T12:42:15;99757.84;;;17.44;57.06
70982;BME280;58640;51.320;9.456;2023-05-20T12:44:40;99747.41;;;17.34;57.99
70982;BME280;58640;51.320;9.456;2023-05-20T12:47:07;99756.19;;;17.63;57.65
70982;BME280;58640;51.320;9.456;2023-05-20T12:49:33;99749.75;;;17.11;58.63
70982;BME280;58640;51.320;9.456;2023-05-20T12:51:58;99747.63;;;17.26;58.16
70982;BME280;58640;51.320;9.456;2023-05-20T12:54:24;99744.09;;;17.39;57.76
70982;BME280;58640;51.320;9.456;2023-05-20T12:56:52;99741.34;;;17.52;57.81
70982;BME280;58640;51.320;9.456;2023-05-20T12:59:18;99744.31;;;17.31;58.35
70982;BME280;58640;51.320;9.456;2023-05-20T13:01:43;99748.88;;;17.43;58.12
70982;BME280;58640;51.320;9.456;2023-05-20T13:04:09;99744.53;;;17.16;58.51
70982;BME280;58640;51.320;9.456;2023-05-20T13:06:34;99739.09;;;17.23;58.66
70982;BME280;58640;51.320;9.456;2023-05-20T13:08:59;99733.44;;;17.18;59.36
70982;BME280;58640;51.320;9.456;2023-05-20T13:11:25;99731.16;;;17.02;59.48
70982;BME280;58640;51.320;9.456;2023-05-20T13:13:50;99731.38;;;17.07;59.50
70982;BME280;58640;51.320;9.456;2023-05-20T13:16:16;99722.78;;;17.10;59.95
70982;BME280;58640;51.320;9.456;2023-05-20T13:18:42;99719.22;;;16.90;60.70
70982;BME280;58640;51.320;9.456;2023-05-20T13:21:10;99718.56;;;17.53;59.20
70982;BME280;58640;51.320;9.456;2023-05-20T13:23:35;99709.97;;;17.36;59.62
70982;BME280;58640;51.320;9.456;2023-05-20T13:26:01;99714.16;;;17.52;59.13
70982;BME280;58640;51.320;9.456;2023-05-20T13:28:26;99722.28;;;17.59;58.65
70982;BME280;58640;51.320;9.456;2023-05-20T13:30:52;99717.13;;;17.31;58.72
70982;BME280;58640;51.320;9.456;2023-05-20T13:33:17;99708.97;;;17.11;59.34
70982;BME280;58640;51.320;9.456;2023-05-20T13:35:42;99715.22;;;17.38;59.62
70982;BME280;58640;51.320;9.456;2023-05-20T13:38:08;99711.25;;;17.47;59.53
70982;BME280;58640;51.320;9.456;2023-05-20T13:40:34;99711.03;;;17.42;58.98
70982;BME280;58640;51.320;9.456;2023-05-20T13:42:59;99703.47;;;17.57;58.21
70982;BME280;58640;51.320;9.456;2023-05-20T13:45:25;99694.66;;;17.62;58.86
70982;BME280;58640;51.320;9.456;2023-05-20T13:47:50;99707.25;;;17.43;59.18
70982;BME280;58640;51.320;9.456;2023-05-20T13:50:15;99711.03;;;17.55;59.18
70982;BME280;58640;51.320;9.456;2023-05-20T13:52:41;99698.03;;;17.57;59.17
70982;BME280;58640;51.320;9.456;2023-05-20T13:55:06;99707.03;;;17.38;59.34
70982;BME280;58640;51.320;9.456;2023-05-20T13:57:32;99692.44;;;17.32;59.76
70982;BME280;58640;51.320;9.456;2023-05-20T13:59:57;99699.13;;;17.30;60.06
70982;BME280;58640;51.320;9.456;2023-05-20T14:02:23;99689.97;;;16.98;60.86
70982;BME280;58640;51.320;9.456;2023-05-20T14:04:48;99695.63;;;16.84;61.22
70982;BME280;58640;51.320;9.456;2023-05-20T14:07:13;99688.94;;;16.73;61.68
70982;BME280;58640;51.320;9.456;2023-05-20T14:09:39;99692.69;;;16.79;61.68
70982;BME280;58640;51.320;9.456;2023-05-20T14:12:04;99693.97;;;16.76;62.28
70982;BME280;58640;51.320;9.456;2023-05-20T14:14:30;99700.25;;;16.83;61.59
70982;BME280;58640;51.320;9.456;2023-05-20T14:16:56;99683.09;;;16.89;61.90
70982;BME280;58640;51.320;9.456;2023-05-20T14:19:21;99690.59;;;16.94;62.21
70982;BME280;58640;51.320;9.456;2023-05-20T14:21:46;99687.69;;;16.76;62.31
70982;BME280;58640;51.320;9.456;2023-05-20T14:24:12;99678.91;;;16.61;62.92
70982;BME280;58640;51.320;9.456;2023-05-20T14:26:37;99675.72;;;16.44;63.43
70982;BME280;58640;51.320;9.456;2023-05-20T14:29:03;99677.88;;;16.62;63.08
70982;BME280;58640;51.320;9.456;2023-05-20T14:31:28;99680.16;;;16.58;63.45
70982;BME280;58640;51.320;9.456;2023-05-20T14:33:53;99671.78;;;16.66;62.90
70982;BME280;58640;51.320;9.456;2023-05-20T14:36:19;99668.66;;;16.76;62.64
70982;BME280;58640;51.320;9.456;2023-05-20T14:38:44;99675.56;;;16.65;63.38
70982;BME280;58640;51.320;9.456;2023-05-20T14:41:10;99651.13;;;16.59;63.39
70982;BME280;58640;51.320;9.456;2023-05-20T14:43:35;99662.19;;;16.51;63.99
70982;BME280;58640;51.320;9.456;2023-05-20T14:46:01;99663.44;;;16.68;63.52
70982;BME280;58640;51.320;9.456;2023-05-20T14:48:27;99670.13;;;16.46;64.22
70982;BME280;58640;51.320;9.456;2023-05-20T14:50:52;99663.63;;;16.47;64.23
70982;BME280;58640;51.320;9.456;2023-05-20T14:53:17;99664.84;;;16.31;64.68
70982;BME280;58640;51.320;9.456;2023-05-20T14:55:43;99665.94;;;16.43;64.93
70982;BME280;58640;51.320;9.456;2023-05-20T14:58:08;99668.84;;;16.42;64.51
70982;BME280;58640;51.320;9.456;2023-05-20T15:00:34;99661.50;;;16.16;65.46
70982;BME280;58640;51.320;9.456;2023-05-20T15:02:59;99658.78;;;16.36;64.71
70982;BME280;58640;51.320;9.456;2023-05-20T15:05:25;99666.13;;;16.42;64.57
70982;BME280;58640;51.320;9.456;2023-05-20T15:07:50;99661.09;;;16.39;64.95
70982;BME280;58640;51.320;9.456;2023-05-20T15:10:16;99670.69;;;16.28;65.36
70982;BME280;58640;51.320;9.456;2023-05-20T15:12:41;99670.22;;;16.11;65.71
70982;BME280;58640;51.320;9.456;2023-05-20T15:15:10;99675.47;;;16.20;65.75
70982;BME280;58640;51.320;9.456;2023-05-20T15:17:35;99662.31;;;16.03;66.17
70982;BME280;58640;51.320;9.456;2023-05-20T15:20:01;99662.31;;;16.23;65.98
70982;BME280;58640;51.320;9.456;2023-05-20T15:22:28;99660.88;;;16.21;65.97
70982;BME280;58640;51.320;9.456;2023-05-20T15:24:53;99661.91;;;16.20;66.15
70982;BME280;58640;51.320;9.456;2023-05-20T15:27:18;99655.84;;;16.04;66.60
70982;BME280;58640;51.320;9.456;2023-05-20T15:29:44;99654.16;;;16.03;67.02
70982;BME280;58640;51.320;9.456;2023-05-20T15:32:09;99642.50;;;16.23;66.35
70982;BME280;58640;51.320;9.456;2023-05-20T15:34:35;99646.44;;;16.13;67.15
70982;BME280;58640;51.320;9.456;2023-05-20T15:37:00;99647.53;;;16.32;66.06
70982;BME280;58640;51.320;9.456;2023-05-20T15:39:26;99637.91;;;16.30;66.47
70982;BME280;58640;51.320;9.456;2023-05-20T15:41:52;99637.69;;;16.31;66.44
70982;BME280;58640;51.320;9.456;2023-05-20T15:44:17;99634.56;;;16.41;66.30
70982;BME280;58640;51.320;9.456;2023-05-20T15:46:43;99632.91;;;16.40;65.86
70982;BME280;58640;51.320;9.456;2023-05-20T15:49:10;99630.41;;;16.38;66.56
70982;BME280;58640;51.320;9.456;2023-05-20T15:51:36;99629.59;;;16.51;66.26
70982;BME280;58640;51.320;9.456;2023-05-20T15:54:02;99626.84;;;16.44;66.29
70982;BME280;58640;51.320;9.456;2023-05-20T15:56:27;99627.75;;;16.51;65.67
70982;BME280;58640;51.320;9.456;2023-05-20T15:58:53;99633.78;;;16.60;65.54
70982;BME280;58640;51.320;9.456;2023-05-20T16:01:18;99621.69;;;16.69;65.03
70982;BME280;58640;51.320;9.456;2023-05-20T16:03:43;99621.88;;;16.67;65.27
70982;BME280;58640;51.320;9.456;2023-05-20T16:06:09;99623.53;;;16.75;64.92
70982;BME280;58640;51.320;9.456;2023-05-20T16:08:35;99606.59;;;16.73;65.43
70982;BME280;58640;51.320;9.456;2023-05-20T16:11:03;99602.03;;;16.67;65.58
70982;BME280;58640;51.320;9.456;2023-05-20T16:13:28;99610.38;;;16.52;65.92
70982;BME280;58640;51.320;9.456;2023-05-20T16:15:53;99601.19;;;16.40;66.49
70982;BME280;58640;51.320;9.456;2023-05-20T16:18:22;99600.38;;;16.46;66.81
70982;BME280;58640;51.320;9.456;2023-05-20T16:20:47;99597.03;;;16.57;66.33
70982;BME280;58640;51.320;9.456;2023-05-20T16:23:13;99594.09;;;16.72;65.99
70982;BME280;58640;51.320;9.456;2023-05-20T16:25:38;99595.75;;;16.73;65.72
70982;BME280;58640;51.320;9.456;2023-05-20T16:28:03;99588.84;;;16.77;65.78
70982;BME280;58640;51.320;9.456;2023-05-20T16:30:29;99597.63;;;16.72;66.18
70982;BME280;58640;51.320;9.456;2023-05-20T16:32:54;99595.31;;;16.63;66.34
70982;BME280;58640;51.320;9.456;2023-05-20T16:35:19;99603.47;;;16.56;67.34
70982;BME280;58640;51.320;9.456;2023-05-20T16:37:45;99603.28;;;16.51;67.15
70982;BME280;58640;51.320;9.456;2023-05-20T16:40:11;99598.47;;;16.53;67.32
70982;BME280;58640;51.320;9.456;2023-05-20T16:42:36;99596.59;;;16.54;66.80
70982;BME280;58640;51.320;9.456;2023-05-20T16:45:04;99599.72;;;16.64;66.92
70982;BME280;58640;51.320;9.456;2023-05-20T16:47:29;99604.94;;;16.78;66.54
70982;BME280;58640;51.320;9.456;2023-05-20T16:49:57;99604.53;;;16.62;67.20
70982;BME280;58640;51.320;9.456;2023-05-20T16:52:22;99599.53;;;16.65;67.00
70982;BME280;58640;51.320;9.456;2023-05-20T16:54:47;99592.81;;;16.68;66.89
70982;BME280;58640;51.320;9.456;2023-05-20T16:57:15;99595.75;;;16.60;67.46
70982;BME280;58640;51.320;9.456;2023-05-20T17:02:13;99597.41;;;16.80;66.58
70982;BME280;58640;51.320;9.456;2023-05-20T17:04:39;99600.97;;;16.74;67.22
70982;BME280;58640;51.320;9.456;2023-05-20T17:07:04;99604.09;;;16.78;67.05
70982;BME280;58640;51.320;9.456;2023-05-20T17:09:34;99605.16;;;16.70;67.39
70982;BME280;58640;51.320;9.456;2023-05-20T17:12:00;99608.91;;;16.69;67.58
70982;BME280;58640;51.320;9.456;2023-05-20T17:14:25;99610.81;;;16.56;67.94
70982;BME280;58640;51.320;9.456;2023-05-20T17:16:51;99610.19;;;16.47;68.34
70982;BME280;58640;51.320;9.456;2023-05-20T17:19:16;99614.75;;;16.60;68.12
70982;BME280;58640;51.320;9.456;2023-05-20T17:21:41;99607.03;;;16.57;67.43
70982;BME280;58640;51.320;9.456;2023-05-20T17:24:08;99614.38;;;16.50;67.91
70982;BME280;58640;51.320;9.456;2023-05-20T17:26:33;99607.22;;;16.36;68.10
70982;BME280;58640;51.320;9.456;2023-05-20T17:28:59;99613.28;;;16.44;67.92
70982;BME280;58640;51.320;9.456;2023-05-20T17:31:24;99624.97;;;16.25;68.40
70982;BME280;58640;51.320;9.456;2023-05-20T17:33:49;99617.66;;;16.26;68.43
70982;BME280;58640;51.320;9.456;2023-05-20T17:36:15;99627.66;;;16.19;68.73
70982;BME280;58640;51.320;9.456;2023-05-20T17:38:40;99623.28;;;16.11;69.06
70982;BME280;58640;51.320;9.456;2023-05-20T17:41:06;99622.22;;;16.12;69.23
70982;BME280;58640;51.320;9.456;2023-05-20T17:43:31;99614.53;;;16.16;69.17
70982;BME280;58640;51.320;9.456;2023-05-20T17:45:56;99618.47;;;16.06;69.56
70982;BME280;58640;51.320;9.456;2023-05-20T17:48:22;99614.06;;;16.05;69.84
70982;BME280;58640;51.320;9.456;2023-05-20T17:50:47;99612.63;;;16.09;69.69
70982;BME280;58640;51.320;9.456;2023-05-20T17:53:13;99611.38;;;16.12;69.78
70982;BME280;58640;51.320;9.456;2023-05-20T17:55:38;99608.88;;;16.24;69.03
70982;BME280;58640;51.320;9.456;2023-05-20T17:58:04;99616.19;;;16.23;69.37